Time;durP1;ratioP1;P1;durP2;ratioP2;P2;SDS_P1;SDS_P2;PMS_P1;PMS_P2;Temp;Humidity;BMP_temperature;BMP_pressure;BME280_temperature;BME280_humidity;BME280_pressure;Samples;Min_cycle;Max_cycle;Signal;HPM_P1;HPM_P2
2024/03/05 00:00:18;;;;;;;;;;;;;;;10.50;54.22;100323.94;5004237;27;99986;-71
2024/03/05 00:02:44;;;;;;;;;;;;;;;10.50;53.73;100329.31;4980250;27;98228;-71
2024/03/05 00:05:14;;;;;;;;;;;;;;;10.49;54.44;100336.59;5002969;27;99533;-71
2024/03/05 00:07:41;;;;;;;;;;;;;;;10.48;54.40;100340.34;4984094;27;98162;-71
2024/03/05 00:10:08;;;;;;;;;;;;;;;10.48;53.97;100336.84;4969580;27;100275;-70
2024/03/05 00:12:34;;;;;;;;;;;;;;;10.47;54.38;100343.31;4986801;27;98281;-71
2024/03/05 00:15:01;;;;;;;;;;;;;;;10.47;53.77;100343.31;4972855;27;98154;-71
2024/03/05 00:17:28;;;;;;;;;;;;;;;10.45;54.01;100340.91;4986422;27;97957;-71
2024/03/05 00:19:54;;;;;;;;;;;;;;;10.44;53.71;100344.66;4970926;27;98390;-71
2024/03/05 00:22:21;;;;;;;;;;;;;;;10.44;54.26;100347.34;4983149;27;98602;-71
2024/03/05 00:24:47;;;;;;;;;;;;;;;10.44;54.45;100344.66;4981844;27;98281;-71
2024/03/05 00:27:16;;;;;;;;;;;;;;;10.43;54.00;100356.53;4968304;27;98297;-71
2024/03/05 00:29:42;;;;;;;;;;;;;;;10.44;54.23;100357.34;4982442;27;99064;-71
2024/03/05 00:32:09;;;;;;;;;;;;;;;10.43;53.92;100361.91;4979356;27;98243;-71
2024/03/05 00:34:35;;;;;;;;;;;;;;;10.42;54.22;100359.50;4984760;27;98004;-71
2024/03/05 00:37:02;;;;;;;;;;;;;;;10.40;54.22;100364.34;4980008;27;98113;-71
2024/03/05 00:39:29;;;;;;;;;;;;;;;10.41;54.21;100366.75;4979483;27;98134;-71
2024/03/05 00:41:55;;;;;;;;;;;;;;;10.40;54.13;100367.84;4985425;27;98286;-71
2024/03/05 00:44:22;;;;;;;;;;;;;;;10.39;53.90;100368.91;4987116;27;100088;-71
2024/03/05 00:46:48;;;;;;;;;;;;;;;10.40;53.99;100369.72;4987765;27;98766;-71
2024/03/05 00:49:15;;;;;;;;;;;;;;;10.38;54.12;100369.19;4982898;27;98124;-71
2024/03/05 00:51:41;;;;;;;;;;;;;;;10.38;53.81;100367.31;4988892;27;98235;-71
2024/03/05 00:54:12;;;;;;;;;;;;;;;10.38;54.22;100374.59;4985480;27;98234;-71
2024/03/05 00:56:38;;;;;;;;;;;;;;;10.37;53.77;100378.34;4987529;27;99045;-71
2024/03/05 00:59:04;;;;;;;;;;;;;;;10.36;54.49;100372.16;4966870;27;97994;-71
2024/03/05 01:01:31;;;;;;;;;;;;;;;10.36;54.29;100380.22;4987155;27;99829;-71
2024/03/05 01:03:58;;;;;;;;;;;;;;;10.35;54.10;100373.22;4987511;27;98271;-71
2024/03/05 01:06:24;;;;;;;;;;;;;;;10.36;54.04;100376.72;4984421;27;98265;-71
2024/03/05 01:08:51;;;;;;;;;;;;;;;10.35;54.36;100383.19;4982401;27;98494;-70
2024/03/05 01:11:17;;;;;;;;;;;;;;;10.35;54.24;100378.63;4999743;27;99028;-71
2024/03/05 01:13:44;;;;;;;;;;;;;;;10.35;54.39;100377.81;5001949;27;97931;-71
2024/03/05 01:16:10;;;;;;;;;;;;;;;10.34;54.02;100379.69;4984367;27;99806;-71
2024/03/05 01:18:37;;;;;;;;;;;;;;;10.34;54.19;100385.09;4986957;27;98427;-71
2024/03/05 01:21:05;;;;;;;;;;;;;;;10.34;53.88;100385.09;4988718;27;98024;-71
2024/03/05 01:23:33;;;;;;;;;;;;;;;10.33;54.26;100386.16;4972731;27;99266;-71
2024/03/05 01:25:59;;;;;;;;;;;;;;;10.34;54.24;100384.28;4981256;27;99687;-71
2024/03/05 01:28:29;;;;;;;;;;;;;;;10.32;53.77;100382.66;4980425;27;98078;-70
2024/03/05 01:30:58;;;;;;;;;;;;;;;10.33;54.00;100383.44;5003028;27;98081;-71
2024/03/05 01:33:25;;;;;;;;;;;;;;;10.33;54.04;100378.06;4997360;27;98161;-71
2024/03/05 01:35:52;;;;;;;;;;;;;;;10.32;54.00;100382.66;4999495;27;97961;-71
2024/03/05 01:38:19;;;;;;;;;;;;;;;10.32;54.36;100385.34;4968920;27;97959;-71
2024/03/05 01:40:45;;;;;;;;;;;;;;;10.32;54.14;100379.16;4985598;27;98118;-71
2024/03/05 01:43:12;;;;;;;;;;;;;;;10.32;54.29;100384.53;4978218;27;98146;-71
2024/03/05 01:45:38;;;;;;;;;;;;;;;10.31;54.16;100380.22;4999821;27;98109;-71
2024/03/05 01:48:05;;;;;;;;;;;;;;;10.31;53.97;100378.34;4982171;27;98368;-70
2024/03/05 01:50:35;;;;;;;;;;;;;;;10.30;53.93;100381.31;4987237;27;98147;-70
2024/03/05 01:53:04;;;;;;;;;;;;;;;10.29;54.19;100375.09;4964197;27;98135;-70
2024/03/05 01:55:31;;;;;;;;;;;;;;;10.29;54.05;100380.47;4990187;27;98177;-71
2024/03/05 01:57:58;;;;;;;;;;;;;;;10.29;54.10;100385.06;4969224;27;100376;-70
2024/03/05 02:00:24;;;;;;;;;;;;;;;10.28;53.97;100381.56;4987871;27;98694;-70
2024/03/05 02:02:51;;;;;;;;;;;;;;;10.28;54.15;100381.56;4988100;27;98152;-70
2024/03/05 02:05:17;;;;;;;;;;;;;;;10.28;53.93;100378.06;4987204;27;98112;-71
2024/03/05 02:07:45;;;;;;;;;;;;;;;10.28;53.99;100378.06;4972382;27;99823;-71
2024/03/05 02:10:11;;;;;;;;;;;;;;;10.28;54.32;100378.06;4971081;27;99129;-71
2024/03/05 02:12:40;;;;;;;;;;;;;;;10.26;54.43;100386.44;4981078;27;99519;-71
2024/03/05 02:15:12;;;;;;;;;;;;;;;10.26;54.11;100381.03;4964180;27;98876;-71
2024/03/05 02:17:43;;;;;;;;;;;;;;;10.26;53.96;100391.81;4967156;27;99960;-70
2024/03/05 02:20:12;;;;;;;;;;;;;;;10.25;53.80;100387.47;5012115;27;98015;-71
2024/03/05 02:22:41;;;;;;;;;;;;;;;10.25;54.40;100389.38;4988158;27;98329;-71
2024/03/05 02:25:08;;;;;;;;;;;;;;;10.25;53.80;100392.06;4980446;27;100384;-71
2024/03/05 02:27:35;;;;;;;;;;;;;;;10.24;54.28;100391.22;4966288;27;98027;-70
2024/03/05 02:30:02;;;;;;;;;;;;;;;10.22;54.36;100388.00;4983231;27;98306;-71
2024/03/05 02:32:29;;;;;;;;;;;;;;;10.24;54.13;100390.41;4965385;27;98125;-71
2024/03/05 02:34:55;;;;;;;;;;;;;;;10.23;53.77;100399.59;4986325;27;98048;-70
2024/03/05 02:37:21;;;;;;;;;;;;;;;10.21;54.00;100390.94;4987261;27;99087;-70
2024/03/05 02:39:49;;;;;;;;;;;;;;;10.23;54.21;100394.19;4973683;27;98235;-71
2024/03/05 02:42:16;;;;;;;;;;;;;;;10.22;54.44;100403.38;4990645;27;99155;-70
2024/03/05 02:44:43;;;;;;;;;;;;;;;10.21;53.98;100402.53;4983026;27;99035;-70
2024/03/05 02:47:10;;;;;;;;;;;;;;;10.21;53.97;100399.03;4987710;27;99096;-70
2024/03/05 02:49:36;;;;;;;;;;;;;;;10.21;54.22;100399.03;4985629;27;98035;-71
2024/03/05 02:52:04;;;;;;;;;;;;;;;10.20;54.21;100400.91;4986875;27;97990;-70
2024/03/05 02:54:31;;;;;;;;;;;;;;;10.20;53.97;100409.00;4985797;27;98668;-70
2024/03/05 02:56:58;;;;;;;;;;;;;;;10.19;53.89;100406.59;4988610;27;98652;-70
2024/03/05 02:59:25;;;;;;;;;;;;;;;10.19;54.54;100407.38;4987437;27;98565;-71
2024/03/05 03:01:53;;;;;;;;;;;;;;;10.19;54.23;100406.59;5005861;27;99027;-71
2024/03/05 03:04:19;;;;;;;;;;;;;;;10.18;53.95;100399.56;4983003;27;99005;-70
2024/03/05 03:06:45;;;;;;;;;;;;;;;10.18;54.49;100408.47;4998194;27;98398;-71
2024/03/05 03:09:11;;;;;;;;;;;;;;;10.18;53.74;100403.09;4971771;27;98455;-71
2024/03/05 03:11:41;;;;;;;;;;;;;;;10.18;53.81;100410.31;4996804;27;98247;-71
2024/03/05 03:14:09;;;;;;;;;;;;;;;10.18;54.46;100410.31;4988111;27;99423;-71
2024/03/05 03:16:36;;;;;;;;;;;;;;;10.17;54.09;100417.59;4968376;27;98185;-70
2024/03/05 03:19:04;;;;;;;;;;;;;;;10.16;54.04;100425.97;4969598;27;97995;-70
2024/03/05 03:21:31;;;;;;;;;;;;;;;10.16;54.30;100434.03;4987319;27;98182;-70
2024/03/05 03:23:57;;;;;;;;;;;;;;;10.16;54.25;100432.16;4987188;27;98086;-70
2024/03/05 03:26:24;;;;;;;;;;;;;;;10.14;53.96;100431.63;4983194;27;98321;-70
2024/03/05 03:28:54;;;;;;;;;;;;;;;10.15;53.73;100427.03;4966877;27;106644;-71
2024/03/05 03:31:21;;;;;;;;;;;;;;;10.14;54.09;100434.31;4969631;27;98036;-70
2024/03/05 03:33:48;;;;;;;;;;;;;;;10.13;54.23;100429.97;5005939;27;98398;-70
2024/03/05 03:36:27;;;;;;;;;;;;;;;10.14;53.78;100436.19;4988595;27;98291;-71
2024/03/05 03:38:54;;;;;;;;;;;;;;;10.13;53.97;100427.28;4983460;27;100403;-70
2024/03/05 03:41:20;;;;;;;;;;;;;;;10.11;54.50;100420.56;4982638;27;98137;-70
2024/03/05 03:43:47;;;;;;;;;;;;;;;10.12;53.87;100425.69;4987320;27;98004;-70
2024/03/05 03:46:13;;;;;;;;;;;;;;;10.11;54.04;100418.69;4970060;27;98097;-70
2024/03/05 03:48:40;;;;;;;;;;;;;;;10.12;54.23;100419.47;4972159;27;98564;-70
2024/03/05 03:51:07;;;;;;;;;;;;;;;10.12;53.74;100417.59;4966830;27;97966;-70
2024/03/05 03:53:36;;;;;;;;;;;;;;;10.10;53.87;100419.75;4985631;27;98342;-70
2024/03/05 03:56:03;;;;;;;;;;;;;;;10.09;54.07;100415.44;4968704;27;98300;-70
2024/03/05 03:58:30;;;;;;;;;;;;;;;10.10;54.07;100417.06;4973058;27;98124;-70
2024/03/05 04:00:58;;;;;;;;;;;;;;;10.09;54.23;100412.72;4996421;27;98228;-70
2024/03/05 04:03:25;;;;;;;;;;;;;;;10.08;53.86;100425.41;4986276;27;98123;-70
2024/03/05 04:05:51;;;;;;;;;;;;;;;10.07;54.52;100418.41;4969171;27;98887;-70
2024/03/05 04:08:17;;;;;;;;;;;;;;;10.07;54.01;100429.16;4981783;27;98569;-70
2024/03/05 04:10:44;;;;;;;;;;;;;;;10.07;53.99;100421.09;4985752;27;98277;-70
2024/03/05 04:13:11;;;;;;;;;;;;;;;10.07;54.49;100420.28;4969020;27;98382;-71
2024/03/05 04:15:37;;;;;;;;;;;;;;;10.05;54.45;100425.91;4988628;27;98190;-70
2024/03/05 04:18:04;;;;;;;;;;;;;;;10.05;54.03;100420.53;5002598;27;98277;-70
2024/03/05 04:20:30;;;;;;;;;;;;;;;10.06;54.46;100432.94;4982090;27;98322;-70
2024/03/05 04:22:56;;;;;;;;;;;;;;;10.05;54.52;100435.88;4986125;27;99134;-70
2024/03/05 04:25:30;;;;;;;;;;;;;;;10.05;54.13;100430.50;4981085;27;98194;-70
2024/03/05 04:27:56;;;;;;;;;;;;;;;10.02;53.87;100442.63;4988065;27;97990;-71
2024/03/05 04:30:24;;;;;;;;;;;;;;;10.03;53.83;100444.25;4980907;27;99367;-70
2024/03/05 04:32:52;;;;;;;;;;;;;;;10.02;54.12;100450.72;4971374;27;98996;-70
2024/03/05 04:35:19;;;;;;;;;;;;;;;10.01;54.42;100449.06;4962631;27;98963;-70
2024/03/05 04:37:45;;;;;;;;;;;;;;;10.00;53.69;100441.25;5004999;27;98162;-70
2024/03/05 04:40:12;;;;;;;;;;;;;;;10.00;54.22;100450.16;5002120;27;99359;-70
2024/03/05 04:42:41;;;;;;;;;;;;;;;10.00;53.88;100450.16;4985429;27;98206;-70
2024/03/05 04:45:07;;;;;;;;;;;;;;;10.00;53.86;100449.34;4988422;27;98499;-70
2024/03/05 04:47:36;;;;;;;;;;;;;;;9.99;54.55;100448.53;5002637;27;99461;-70
2024/03/05 04:50:02;;;;;;;;;;;;;;;9.98;54.45;100449.63;4985249;27;99334;-70
2024/03/05 04:52:28;;;;;;;;;;;;;;;9.98;54.58;100448.78;4966823;27;100197;-70
2024/03/05 04:54:55;;;;;;;;;;;;;;;9.98;54.11;100454.16;4989972;27;98030;-70
2024/03/05 04:57:22;;;;;;;;;;;;;;;9.97;54.52;100464.13;4982596;27;98071;-70
2024/03/05 04:59:48;;;;;;;;;;;;;;;9.97;54.03;100463.31;4979973;27;98103;-70
2024/03/05 05:02:15;;;;;;;;;;;;;;;9.97;54.05;100466.03;4971038;27;98671;-70
2024/03/05 05:04:42;;;;;;;;;;;;;;;9.96;53.82;100467.91;5002691;27;98155;-70
2024/03/05 05:07:10;;;;;;;;;;;;;;;9.95;54.48;100470.88;4984303;27;99699;-70
2024/03/05 05:09:41;;;;;;;;;;;;;;;9.96;54.29;100465.22;4971901;27;98451;-71
2024/03/05 05:12:08;;;;;;;;;;;;;;;9.95;54.36;100465.50;4976365;27;99857;-70
2024/03/05 05:14:34;;;;;;;;;;;;;;;9.94;53.92;100463.84;4981126;27;98129;-71
2024/03/05 05:17:01;;;;;;;;;;;;;;;9.94;54.00;100462.00;4981466;27;98167;-71
2024/03/05 05:19:28;;;;;;;;;;;;;;;9.93;53.87;100459.53;4997566;27;98021;-70
2024/03/05 05:21:54;;;;;;;;;;;;;;;9.93;54.45;100467.63;4965380;27;98461;-70
2024/03/05 05:24:21;;;;;;;;;;;;;;;9.93;53.87;100462.22;4985296;27;99429;-71
2024/03/05 05:26:48;;;;;;;;;;;;;;;9.93;54.47;100467.63;4970935;27;98104;-70
2024/03/05 05:29:15;;;;;;;;;;;;;;;9.91;53.92;100459.81;4975496;27;98520;-71
2024/03/05 05:31:43;;;;;;;;;;;;;;;9.90;53.82;100463.56;4987491;27;98859;-71
2024/03/05 05:34:09;;;;;;;;;;;;;;;9.90;54.32;100460.06;4990870;27;98131;-70
2024/03/05 05:36:36;;;;;;;;;;;;;;;9.90;53.92;100470.81;4972981;27;99530;-71
2024/03/05 05:39:06;;;;;;;;;;;;;;;9.88;54.29;100470.28;4990729;27;98470;-71
2024/03/05 05:41:32;;;;;;;;;;;;;;;9.88;54.10;100468.41;5001772;27;98437;-70
2024/03/05 05:43:59;;;;;;;;;;;;;;;9.88;54.09;100464.91;4988268;27;98992;-70
2024/03/05 05:46:28;;;;;;;;;;;;;;;9.87;54.49;100463.31;4986854;27;98523;-71
2024/03/05 05:48:55;;;;;;;;;;;;;;;9.88;54.35;100464.91;5002294;27;98176;-70
2024/03/05 05:51:24;;;;;;;;;;;;;;;9.86;54.43;100459.78;4997858;27;100026;-70
2024/03/05 05:53:51;;;;;;;;;;;;;;;9.87;54.53;100469.50;4967482;27;98052;-70
2024/03/05 05:56:18;;;;;;;;;;;;;;;9.87;54.34;100476.75;4980351;27;98021;-70
2024/03/05 05:58:45;;;;;;;;;;;;;;;9.85;54.05;100474.31;4982736;27;98154;-71
2024/03/05 06:01:13;;;;;;;;;;;;;;;9.86;54.49;100473.22;4979590;27;98463;-71
2024/03/05 06:03:44;;;;;;;;;;;;;;;9.87;53.88;100482.16;5018970;27;98048;-70
2024/03/05 06:06:14;;;;;;;;;;;;;;;9.87;54.28;100482.16;4985092;27;98050;-70
2024/03/05 06:08:42;;;;;;;;;;;;;;;9.87;54.18;100485.66;5009340;27;98019;-71
2024/03/05 06:11:09;;;;;;;;;;;;;;;9.88;54.43;100476.50;4989189;27;97933;-71
2024/03/05 06:13:36;;;;;;;;;;;;;;;9.90;54.18;100468.13;5000551;27;98716;-70
2024/03/05 06:16:07;;;;;;;;;;;;;;;9.92;54.52;100472.19;4973137;27;98162;-71
2024/03/05 06:18:35;;;;;;;;;;;;;;;9.95;54.26;100473.56;4980303;27;98412;-70
2024/03/05 06:21:02;;;;;;;;;;;;;;;9.97;54.05;100466.03;4991485;27;99771;-70
2024/03/05 06:23:29;;;;;;;;;;;;;;;10.01;54.00;100472.50;4971468;27;98022;-71
2024/03/05 06:25:56;;;;;;;;;;;;;;;10.05;54.25;100477.09;4991063;27;97966;-70
2024/03/05 06:28:23;;;;;;;;;;;;;;;10.09;53.56;100486.25;4975901;27;99841;-71
2024/03/05 06:30:50;;;;;;;;;;;;;;;10.14;53.75;100498.97;4990610;27;98532;-71
2024/03/05 06:33:17;;;;;;;;;;;;;;;10.17;53.84;100498.41;4981742;27;98004;-71
2024/03/05 06:35:45;;;;;;;;;;;;;;;10.20;53.41;100500.59;4970317;27;98176;-71
2024/03/05 06:38:12;;;;;;;;;;;;;;;10.23;53.85;100505.44;4977647;27;99015;-71
2024/03/05 06:40:38;;;;;;;;;;;;;;;10.25;54.12;100499.81;4970422;27;98288;-71
2024/03/05 06:43:06;;;;;;;;;;;;;;;10.31;54.05;100498.78;4986761;27;98117;-71
2024/03/05 06:45:36;;;;;;;;;;;;;;;10.43;53.32;100506.63;4970954;27;98349;-71
2024/03/05 06:48:07;;;;;;;;;;;;;;;10.58;53.72;100509.38;4992778;27;97814;-70
2024/03/05 06:50:38;;;;;;;;;;;;;;;10.68;53.54;100511.25;4969279;27;98282;-71
2024/03/05 06:58:44;;;;;;;;;;;;;;;10.77;53.39;100518.56;4989510;27;98099;-71
2024/03/05 07:01:19;;;;;;;;;;;;;;;10.81;53.77;100521.56;4984535;27;98297;-71
2024/03/05 07:03:46;;;;;;;;;;;;;;;10.87;53.34;100519.66;4969639;27;98091;-71
2024/03/05 07:06:12;;;;;;;;;;;;;;;10.92;53.39;100517.75;4989918;27;98262;-71
2024/03/05 07:08:43;;;;;;;;;;;;;;;11.01;53.28;100518.88;4990260;27;97933;-71
2024/03/05 07:11:11;;;;;;;;;;;;;;;11.16;53.39;100512.69;4969862;27;98411;-70
2024/03/05 07:13:47;;;;;;;;;;;;;;;11.34;53.11;100515.91;4989717;27;97894;-70
2024/03/05 07:16:16;;;;;;;;;;;;;;;11.43;53.11;100512.38;5001243;27;98675;-70
2024/03/05 07:18:54;;;;;;;;;;;;;;;11.58;53.11;100499.94;5003669;27;99071;-71
2024/03/05 07:21:22;;;;;;;;;;;;;;;11.75;52.99;100495.03;4982914;27;98313;-70
2024/03/05 07:23:50;;;;;;;;;;;;;;;11.85;52.83;100503.16;4987718;27;98156;-70
2024/03/05 07:26:18;;;;;;;;;;;;;;;11.92;52.92;100508.28;4983419;27;98495;-71
2024/03/05 07:28:45;;;;;;;;;;;;;;;11.96;52.89;100509.34;4985538;27;98534;-70
2024/03/05 07:31:12;;;;;;;;;;;;;;;12.03;52.61;100512.56;4983976;27;98453;-70
2024/03/05 07:33:39;;;;;;;;;;;;;;;12.07;52.93;100515.53;5004453;27;98202;-70
2024/03/05 07:36:06;;;;;;;;;;;;;;;12.08;52.86;100517.94;4988842;27;98097;-70
2024/03/05 07:38:34;;;;;;;;;;;;;;;12.04;53.07;100522.28;4989724;27;98081;-70
2024/03/05 07:41:01;;;;;;;;;;;;;;;11.98;53.13;100528.78;4984457;27;98282;-70
2024/03/05 07:43:27;;;;;;;;;;;;;;;11.94;53.05;100530.41;4970509;27;98362;-70
2024/03/05 07:45:54;;;;;;;;;;;;;;;11.95;53.07;100530.16;4997737;27;98125;-70
2024/03/05 07:48:21;;;;;;;;;;;;;;;12.00;52.92;100535.53;5001075;27;98081;-70
2024/03/05 07:50:49;;;;;;;;;;;;;;;12.06;53.01;100539.00;5005286;27;99985;-70
2024/03/05 07:53:15;;;;;;;;;;;;;;;12.11;52.96;100538.22;5005458;27;97925;-70
2024/03/05 07:55:42;;;;;;;;;;;;;;;12.14;52.99;100543.03;4969179;27;98293;-70
2024/03/05 07:58:09;;;;;;;;;;;;;;;12.08;52.99;100539.56;4972070;27;98089;-70
2024/03/05 08:00:35;;;;;;;;;;;;;;;12.02;53.15;100538.78;4985528;27;98045;-70
2024/03/05 08:03:03;;;;;;;;;;;;;;;12.05;53.11;100542.81;4979745;27;98914;-70
2024/03/05 08:05:30;;;;;;;;;;;;;;;12.19;53.10;100551.16;4968142;27;98301;-70
2024/03/05 08:07:58;;;;;;;;;;;;;;;13.24;51.42;100525.66;4988353;27;98270;-70
2024/03/05 08:10:25;;;;;;;;;;;;;;;14.05;50.76;100524.06;4987356;27;98177;-70
2024/03/05 08:12:55;;;;;;;;;;;;;;;14.64;50.41;100521.97;4970550;27;98809;-70
2024/03/05 08:15:24;;;;;;;;;;;;;;;15.31;50.15;100516.34;4985012;27;98307;-70
2024/03/05 08:17:50;;;;;;;;;;;;;;;15.64;50.10;100517.09;4986789;27;98417;-70
2024/03/05 08:20:18;;;;;;;;;;;;;;;16.57;49.38;100519.63;4981383;27;98653;-70
2024/03/05 08:22:46;;;;;;;;;;;;;;;17.08;49.37;100511.09;5006610;27;98104;-70
2024/03/05 08:25:16;;;;;;;;;;;;;;;17.20;49.57;100509.75;4989406;27;98310;-70
2024/03/05 08:27:43;;;;;;;;;;;;;;;17.10;49.98;100517.06;4966643;27;98091;-70
2024/03/05 08:30:16;;;;;;;;;;;;;;;16.88;50.66;100528.72;4987583;27;98133;-70
2024/03/05 08:33:04;;;;;;;;;;;;;;;16.54;51.12;100526.47;4965940;27;98241;-70
2024/03/05 08:35:31;;;;;;;;;;;;;;;16.76;50.66;100525.75;4986079;27;98169;-70
2024/03/05 08:37:58;;;;;;;;;;;;;;;18.70;48.53;100517.06;4962783;27;98589;-70
2024/03/05 08:40:25;;;;;;;;;;;;;;;20.44;47.11;100517.41;4987534;27;98272;-70
2024/03/05 08:42:55;;;;;;;;;;;;;;;20.94;47.26;100527.50;4983837;27;98098;-70
2024/03/05 08:45:24;;;;;;;;;;;;;;;20.97;47.99;100540.56;4985637;27;98125;-70
2024/03/05 08:47:52;;;;;;;;;;;;;;;20.33;49.14;100545.16;4967672;27;98352;-70
2024/03/05 08:50:19;;;;;;;;;;;;;;;20.15;49.48;100543.63;4982673;27;102594;-70
2024/03/05 08:52:47;;;;;;;;;;;;;;;21.67;47.83;100538.75;4988132;27;98049;-70
2024/03/05 08:55:15;;;;;;;;;;;;;;;21.23;48.68;100540.31;4981287;27;99221;-70
2024/03/05 08:57:41;;;;;;;;;;;;;;;20.91;49.26;100548.19;4971395;27;99051;-70
2024/03/05 09:00:09;;;;;;;;;;;;;;;20.74;49.56;100549.09;4998217;27;98017;-70
2024/03/05 09:02:35;;;;;;;;;;;;;;;20.58;49.83;100548.88;4970305;27;98325;-70
2024/03/05 09:05:09;;;;;;;;;;;;;;;20.49;50.00;100550.09;4988631;27;97952;-70
2024/03/05 09:07:37;;;;;;;;;;;;;;;20.58;49.84;100548.09;4987537;27;97808;-70
2024/03/05 09:10:05;;;;;;;;;;;;;;;20.13;50.55;100550.59;4984628;27;98179;-70
2024/03/05 09:12:32;;;;;;;;;;;;;;;19.78;51.00;100556.19;4961257;27;98046;-70
2024/03/05 09:14:58;;;;;;;;;;;;;;;19.50;51.20;100566.69;4982705;27;99718;-70
2024/03/05 09:17:26;;;;;;;;;;;;;;;19.22;51.43;100563.53;4982740;27;98215;-70
2024/03/05 09:19:53;;;;;;;;;;;;;;;18.95;51.70;100554.53;4990310;27;98418;-70
2024/03/05 09:22:20;;;;;;;;;;;;;;;18.76;51.64;100570.41;4984471;27;98240;-70
2024/03/05 09:24:47;;;;;;;;;;;;;;;18.61;51.61;100575.16;5004130;27;98016;-70
2024/03/05 09:27:14;;;;;;;;;;;;;;;18.48;52.05;100567.94;4981772;27;98035;-70
2024/03/05 09:29:42;;;;;;;;;;;;;;;18.35;51.91;100569.66;5002403;27;98578;-70
2024/03/05 09:32:10;;;;;;;;;;;;;;;18.23;51.99;100568.66;4983954;27;98513;-70
2024/03/05 09:34:38;;;;;;;;;;;;;;;18.07;52.04;100571.78;4978680;27;98161;-70
2024/03/05 09:37:06;;;;;;;;;;;;;;;17.86;52.29;100576.22;4963001;28;98531;-70
2024/03/05 09:39:34;;;;;;;;;;;;;;;17.84;52.13;100568.34;4969997;28;98275;-70
2024/03/05 09:42:00;;;;;;;;;;;;;;;20.30;49.03;100569.66;4973446;27;98646;-70
2024/03/05 09:44:28;;;;;;;;;;;;;;;21.43;47.97;100577.09;4960693;28;99272;-70
2024/03/05 09:46:54;;;;;;;;;;;;;;;23.96;45.58;100571.06;4977776;27;98532;-70
2024/03/05 09:49:21;;;;;;;;;;;;;;;26.10;43.67;100585.03;4986005;27;99030;-70
2024/03/05 09:51:48;;;;;;;;;;;;;;;27.91;42.69;100579.47;4968134;27;98504;-70
2024/03/05 09:54:15;;;;;;;;;;;;;;;29.22;41.89;100587.06;4985524;27;98102;-70
2024/03/05 09:56:44;;;;;;;;;;;;;;;29.03;42.80;100591.72;4965040;27;98947;-70
2024/03/05 09:59:17;;;;;;;;;;;;;;;30.10;42.45;100593.94;4971464;27;98504;-70
2024/03/05 10:01:47;;;;;;;;;;;;;;;31.47;41.50;100587.66;4997927;27;98772;-70
2024/03/05 10:04:16;;;;;;;;;;;;;;;32.43;41.37;100588.16;4985711;27;98431;-70
2024/03/05 10:06:47;;;;;;;;;;;;;;;32.71;41.51;100592.63;4978152;27;98732;-70
2024/03/05 10:09:14;;;;;;;;;;;;;;;32.97;41.81;100588.34;4983245;27;98294;-70
2024/03/05 10:11:41;;;;;;;;;;;;;;;34.04;41.05;100589.63;4978162;27;98195;-69
2024/03/05 10:14:08;;;;;;;;;;;;;;;34.56;40.73;100579.94;4987481;27;98683;-69
2024/03/05 10:16:35;;;;;;;;;;;;;;;35.12;40.81;100582.81;4982747;27;98338;-69
2024/03/05 10:19:18;;;;;;;;;;;;;;;35.38;40.65;100575.44;4978993;27;98107;-70
2024/03/05 10:21:48;;;;;;;;;;;;;;;35.62;41.15;100576.13;4989744;27;98307;-69
2024/03/05 10:24:26;;;;;;;;;;;;;;;35.33;41.62;100570.34;4988217;27;98478;-70
2024/03/05 10:26:54;;;;;;;;;;;;;;;34.69;42.75;100573.25;4971178;27;98258;-69
2024/03/05 10:29:21;;;;;;;;;;;;;;;34.14;43.87;100571.09;4967758;27;98455;-70
2024/03/05 10:31:50;;;;;;;;;;;;;;;33.79;44.10;100564.06;4979789;27;99623;-69
2024/03/05 10:34:18;;;;;;;;;;;;;;;33.56;45.11;100556.44;4966032;27;98799;-70
2024/03/05 10:36:47;;;;;;;;;;;;;;;33.41;44.94;100562.22;5002680;27;98353;-70
2024/03/05 10:39:13;;;;;;;;;;;;;;;33.28;45.17;100561.22;4983178;27;98158;-69
2024/03/05 10:41:41;;;;;;;;;;;;;;;33.13;45.99;100557.84;4987978;27;99676;-70
2024/03/05 10:44:09;;;;;;;;;;;;;;;33.10;45.73;100564.25;4971609;27;97875;-70
2024/03/05 10:46:37;;;;;;;;;;;;;;;33.08;46.15;100557.50;4988963;27;98526;-70
2024/03/05 10:49:08;;;;;;;;;;;;;;;33.03;46.37;100560.78;5001127;27;97995;-70
2024/03/05 10:51:41;;;;;;;;;;;;;;;32.71;46.43;100562.72;4991264;27;98193;-69
2024/03/05 10:54:09;;;;;;;;;;;;;;;32.80;46.50;100562.22;4985775;27;98221;-69
2024/03/05 10:56:36;;;;;;;;;;;;;;;32.77;46.41;100565.03;4991454;27;99388;-69
2024/03/05 11:01:41;;;;;;;;;;;;;;;31.83;47.48;100565.09;4994744;27;98715;-70
2024/03/05 11:04:22;;;;;;;;;;;;;;;31.60;47.86;100562.09;4987029;27;98131;-70
2024/03/05 11:06:52;;;;;;;;;;;;;;;31.26;48.08;100563.50;4988958;27;98163;-70
2024/03/05 11:09:19;;;;;;;;;;;;;;;30.79;48.60;100562.13;4987727;27;97949;-69
2024/03/05 11:12:07;;;;;;;;;;;;;;;30.79;48.09;100567.69;4972782;27;100170;-70
2024/03/05 11:14:35;;;;;;;;;;;;;;;30.29;48.81;100573.31;4992602;27;98172;-69
2024/03/05 11:17:09;;;;;;;;;;;;;;;29.77;49.27;100568.16;4973312;27;100965;-70
2024/03/05 11:19:42;;;;;;;;;;;;;;;29.13;49.82;100562.47;4987226;27;98139;-70
2024/03/05 11:22:26;;;;;;;;;;;;;;;28.54;50.16;100565.31;4971467;27;98391;-69
2024/03/05 11:25:02;;;;;;;;;;;;;;;27.95;50.56;100552.63;4984573;27;98688;-69
2024/03/05 11:27:33;;;;;;;;;;;;;;;27.45;51.06;100552.91;5018702;27;98087;-70
2024/03/05 11:30:20;;;;;;;;;;;;;;;27.04;51.03;100563.06;4986624;27;98165;-69
2024/03/05 11:32:48;;;;;;;;;;;;;;;26.75;50.99;100553.63;4991237;27;99867;-69
2024/03/05 11:35:19;;;;;;;;;;;;;;;26.54;51.18;100554.16;4987227;27;99979;-70
2024/03/05 11:37:54;;;;;;;;;;;;;;;26.33;51.05;100560.94;4987856;27;97894;-69
2024/03/05 11:40:34;;;;;;;;;;;;;;;26.23;50.95;100558.00;4987188;27;98397;-70
2024/03/05 11:43:01;;;;;;;;;;;;;;;26.11;50.89;100562.56;5001784;27;97873;-69
2024/03/05 11:45:45;;;;;;;;;;;;;;;26.19;50.68;100550.44;4971166;27;98183;-69
2024/03/05 11:48:20;;;;;;;;;;;;;;;26.26;50.26;100549.78;5012612;27;99220;-69
2024/03/05 11:50:47;;;;;;;;;;;;;;;26.66;49.87;100549.19;5005945;27;99795;-70
2024/03/05 11:53:14;;;;;;;;;;;;;;;27.04;49.35;100552.00;4982705;27;98424;-70
2024/03/05 11:55:41;;;;;;;;;;;;;;;27.28;49.18;100551.56;5000489;27;98315;-70
2024/03/05 11:58:10;;;;;;;;;;;;;;;27.48;49.19;100545.84;5006778;27;98099;-69
2024/03/05 12:00:37;;;;;;;;;;;;;;;27.51;49.38;100543.09;4976662;27;98504;-70
2024/03/05 12:03:03;;;;;;;;;;;;;;;27.30;49.60;100546.41;4967209;27;98416;-69
2024/03/05 12:05:30;;;;;;;;;;;;;;;27.69;49.20;100548.00;4987072;27;99661;-70
2024/03/05 12:08:08;;;;;;;;;;;;;;;27.61;49.37;100552.66;4988756;27;99529;-69
2024/03/05 12:10:36;;;;;;;;;;;;;;;27.62;49.52;100552.28;4983243;27;98114;-69
2024/03/05 12:13:02;;;;;;;;;;;;;;;27.39;49.82;100546.13;4999136;27;98582;-69
2024/03/05 12:15:32;;;;;;;;;;;;;;;27.15;50.33;100552.97;4988344;27;98061;-70
2024/03/05 12:17:58;;;;;;;;;;;;;;;27.29;50.05;100557.88;4987958;27;98074;-70
2024/03/05 12:20:24;;;;;;;;;;;;;;;27.08;50.40;100547.34;4963027;27;99861;-69
2024/03/05 12:22:55;;;;;;;;;;;;;;;27.06;50.21;100555.22;4962741;27;98213;-69
2024/03/05 12:25:21;;;;;;;;;;;;;;;26.92;50.24;100550.31;4987393;27;98214;-69
2024/03/05 12:27:48;;;;;;;;;;;;;;;26.65;50.59;100547.59;4973507;27;98011;-70
2024/03/05 12:30:15;;;;;;;;;;;;;;;26.39;50.75;100544.81;5003669;27;99672;-69
2024/03/05 12:32:46;;;;;;;;;;;;;;;26.02;50.92;100548.22;4967746;27;101678;-70
2024/03/05 12:35:18;;;;;;;;;;;;;;;25.69;51.43;100548.81;4968932;27;105852;-70
2024/03/05 12:37:45;;;;;;;;;;;;;;;25.39;51.38;100546.72;5003874;27;98015;-69
2024/03/05 12:40:22;;;;;;;;;;;;;;;25.01;52.05;100546.72;5002927;27;98265;-69
2024/03/05 12:42:48;;;;;;;;;;;;;;;24.55;52.00;100546.50;4969534;27;98473;-69
2024/03/05 12:45:18;;;;;;;;;;;;;;;24.09;52.39;100543.44;4985202;27;98447;-69
2024/03/05 12:47:57;;;;;;;;;;;;;;;23.69;52.80;100539.72;4969459;27;98271;-70
2024/03/05 12:50:24;;;;;;;;;;;;;;;23.35;52.61;100543.13;4984729;27;98349;-70